N84VK VNJS-VNLK
Flight info
| Callsign | N84VK |
|---|---|
| Flight time | N/A |
| Altitude | 11000 |
| Route | DCT |
| Aircraft | PA24/L-SDGRY/S |
Departure
| Time | N/A |
|---|---|
| Airport | Jomsom Airport (VNJS) |
Arrival
| Time | 2025-06-28 06:21 |
|---|---|
| Airport | Tenzing-Hillary Airport (VNLK) |
| Time | Latitude | Longitude | Altitude | Speed | Heading |
|---|---|---|---|---|---|
| 2025-06-28 03:31 | 28.78144 | 83.72338 | 8894 ft | 0 kts | 115° |
| 2025-06-28 03:38 | 28.78132 | 83.72357 | 8889 ft | 1 kts | 162° |
| 2025-06-28 03:38 | 28.78195 | 83.72538 | 8888 ft | 29 kts | 52° |
| 2025-06-28 03:39 | 28.78215 | 83.72592 | 8887 ft | 0 kts | 236° |
| 2025-06-28 03:40 | 28.77836 | 83.71965 | 8927 ft | 73 kts | 226° |
| 2025-06-28 03:40 | 28.77076 | 83.70849 | 8996 ft | 104 kts | 231° |
| 2025-06-28 03:41 | 28.75913 | 83.69582 | 8963 ft | 127 kts | 218° |
| 2025-06-28 03:41 | 28.74319 | 83.68514 | 8935 ft | 138 kts | 208° |
| 2025-06-28 03:42 | 28.72571 | 83.67425 | 8926 ft | 145 kts | 213° |
| 2025-06-28 03:42 | 28.71844 | 83.66658 | 8930 ft | 146 kts | 234° |
| 2025-06-28 03:42 | 28.70814 | 83.64656 | 8937 ft | 147 kts | 239° |
| 2025-06-28 03:43 | 28.68839 | 83.61962 | 8931 ft | 150 kts | 223° |
| 2025-06-28 03:44 | 28.67328 | 83.60338 | 8916 ft | 150 kts | 223° |
| 2025-06-28 03:44 | 28.65868 | 83.59312 | 8918 ft | 150 kts | 190° |
| 2025-06-28 03:44 | 28.64079 | 83.60266 | 8916 ft | 149 kts | 126° |
| 2025-06-28 03:45 | 28.62948 | 83.62275 | 8892 ft | 151 kts | 123° |
| 2025-06-28 03:45 | 28.61459 | 83.63916 | 8872 ft | 155 kts | 166° |
| 2025-06-28 03:46 | 28.60409 | 83.64081 | 8881 ft | 151 kts | 173° |
| 2025-06-28 03:46 | 28.58304 | 83.64380 | 8890 ft | 154 kts | 174° |
| 2025-06-28 03:47 | 28.55145 | 83.64703 | 8888 ft | 151 kts | 175° |
| 2025-06-28 03:47 | 28.53065 | 83.64929 | 8892 ft | 149 kts | 175° |
| 2025-06-28 03:48 | 28.51002 | 83.64948 | 8844 ft | 151 kts | 191° |
| 2025-06-28 03:48 | 28.49086 | 83.63954 | 8835 ft | 151 kts | 208° |
| 2025-06-28 03:49 | 28.47241 | 83.62823 | 8839 ft | 150 kts | 208° |
| 2025-06-28 03:49 | 28.46339 | 83.62272 | 8841 ft | 150 kts | 208° |
| 2025-06-28 03:50 | 28.44500 | 83.61148 | 8836 ft | 149 kts | 208° |
| 2025-06-28 03:50 | 28.42747 | 83.60082 | 8817 ft | 148 kts | 208° |
| 2025-06-28 03:51 | 28.39933 | 83.58659 | 8824 ft | 147 kts | 203° |
| 2025-06-28 03:51 | 28.38053 | 83.57752 | 8764 ft | 147 kts | 203° |
| 2025-06-28 03:52 | 28.36170 | 83.56846 | 8759 ft | 147 kts | 203° |
| 2025-06-28 03:52 | 28.34218 | 83.57179 | 8759 ft | 148 kts | 155° |
| 2025-06-28 03:53 | 28.32371 | 83.58201 | 8756 ft | 148 kts | 154° |
| 2025-06-28 03:53 | 28.31451 | 83.58718 | 8759 ft | 147 kts | 154° |
| 2025-06-28 03:54 | 28.29640 | 83.59779 | 8757 ft | 147 kts | 144° |
| 2025-06-28 03:54 | 28.28420 | 83.61617 | 8784 ft | 148 kts | 114° |
| 2025-06-28 03:55 | 28.27228 | 83.64863 | 8732 ft | 149 kts | 112° |
| 2025-06-28 03:55 | 28.26564 | 83.67070 | 8737 ft | 149 kts | 104° |
| 2025-06-28 03:56 | 28.26066 | 83.69351 | 8737 ft | 149 kts | 103° |
| 2025-06-28 03:56 | 28.25611 | 83.71638 | 8742 ft | 148 kts | 103° |
| 2025-06-28 03:57 | 28.25122 | 83.74079 | 8073 ft | 177 kts | 103° |
| 2025-06-28 03:57 | 28.24848 | 83.75467 | 7661 ft | 182 kts | 103° |
| 2025-06-28 03:58 | 28.24258 | 83.78192 | 7131 ft | 173 kts | 106° |
| 2025-06-28 03:58 | 28.23852 | 83.80668 | 7127 ft | 150 kts | 102° |
| 2025-06-28 03:59 | 28.24116 | 83.84466 | 5999 ft | 188 kts | 96° |
| 2025-06-28 03:59 | 28.23580 | 83.87268 | 5558 ft | 184 kts | 105° |
| 2025-06-28 04:00 | 28.22882 | 83.90020 | 5148 ft | 176 kts | 122° |
| 2025-06-28 04:00 | 28.21371 | 83.91987 | 4947 ft | 158 kts | 135° |
| 2025-06-28 04:01 | 28.20616 | 83.92851 | 4611 ft | 149 kts | 140° |
| 2025-06-28 04:01 | 28.19041 | 83.94264 | 3599 ft | 142 kts | 117° |
| 2025-06-28 04:02 | 28.18502 | 83.96079 | 3181 ft | 108 kts | 79° |
| 2025-06-28 04:02 | 28.19240 | 83.97320 | 2777 ft | 88 kts | 45° |
| 2025-06-28 04:03 | 28.20196 | 83.98248 | 2689 ft | 28 kts | 38° |
| 2025-06-28 04:03 | 28.20246 | 83.98452 | 2701 ft | 4 kts | 133° |
| 2025-06-28 04:04 | 28.20239 | 83.98458 | 2703 ft | 0 kts | 152° |
| 2025-06-28 04:06 | 28.20394 | 83.98507 | 2707 ft | 23 kts | 40° |
| 2025-06-28 04:07 | 28.20556 | 83.98581 | 2724 ft | 0 kts | 222° |
| 2025-06-28 04:07 | 28.20148 | 83.98185 | 2719 ft | 75 kts | 216° |
| 2025-06-28 04:08 | 28.19063 | 83.97911 | 3013 ft | 93 kts | 151° |
| 2025-06-28 04:08 | 28.18587 | 83.98402 | 3218 ft | 93 kts | 124° |
| 2025-06-28 04:09 | 28.17838 | 84.00582 | 3717 ft | 104 kts | 111° |
| 2025-06-28 04:09 | 28.17330 | 84.02108 | 4148 ft | 104 kts | 113° |
| 2025-06-28 04:10 | 28.16753 | 84.03651 | 4543 ft | 106 kts | 114° |
| 2025-06-28 04:10 | 28.16142 | 84.05241 | 4899 ft | 113 kts | 114° |
| 2025-06-28 04:11 | 28.15261 | 84.07683 | 5444 ft | 111 kts | 111° |
| 2025-06-28 04:12 | 28.14720 | 84.09336 | 5757 ft | 112 kts | 110° |
| 2025-06-28 04:12 | 28.14455 | 84.10170 | 5883 ft | 113 kts | 110° |
| 2025-06-28 04:12 | 28.13922 | 84.11848 | 6133 ft | 114 kts | 111° |
| 2025-06-28 04:13 | 28.13362 | 84.13540 | 6402 ft | 116 kts | 112° |
| 2025-06-28 04:13 | 28.12746 | 84.15244 | 6755 ft | 117 kts | 114° |
| 2025-06-28 04:14 | 28.12096 | 84.16944 | 7079 ft | 118 kts | 114° |
| 2025-06-28 04:14 | 28.11480 | 84.18608 | 7370 ft | 118 kts | 113° |
| 2025-06-28 04:15 | 28.10752 | 84.20595 | 7019 ft | 158 kts | 113° |
| 2025-06-28 04:15 | 28.09906 | 84.23030 | 6751 ft | 164 kts | 111° |
| 2025-06-28 04:16 | 28.09127 | 84.25412 | 6769 ft | 160 kts | 111° |
| 2025-06-28 04:16 | 28.08338 | 84.27742 | 6772 ft | 159 kts | 112° |
| 2025-06-28 04:17 | 28.07508 | 84.30045 | 6922 ft | 157 kts | 114° |
| 2025-06-28 04:17 | 28.06665 | 84.32342 | 6829 ft | 159 kts | 112° |
| 2025-06-28 04:18 | 28.05855 | 84.34659 | 6776 ft | 157 kts | 112° |
| 2025-06-28 04:18 | 28.05457 | 84.35807 | 6775 ft | 156 kts | 112° |
| 2025-06-28 04:19 | 28.04274 | 84.39213 | 6800 ft | 155 kts | 112° |
| 2025-06-28 04:19 | 28.03465 | 84.41474 | 6796 ft | 155 kts | 112° |
| 2025-06-28 04:20 | 28.02656 | 84.43729 | 6798 ft | 155 kts | 112° |
| 2025-06-28 04:20 | 28.01860 | 84.45979 | 6798 ft | 154 kts | 112° |
| 2025-06-28 04:21 | 28.01067 | 84.48245 | 6798 ft | 155 kts | 112° |
| 2025-06-28 04:22 | 28.00279 | 84.50510 | 6798 ft | 155 kts | 112° |
| 2025-06-28 04:22 | 27.99482 | 84.52768 | 6814 ft | 154 kts | 112° |
| 2025-06-28 04:23 | 27.98679 | 84.55025 | 6821 ft | 155 kts | 113° |
| 2025-06-28 04:23 | 27.97870 | 84.57268 | 6821 ft | 155 kts | 113° |
| 2025-06-28 04:24 | 27.97069 | 84.59513 | 6772 ft | 152 kts | 112° |
| 2025-06-28 04:24 | 27.96261 | 84.61731 | 6772 ft | 154 kts | 112° |
| 2025-06-28 04:25 | 27.95451 | 84.64001 | 6773 ft | 157 kts | 112° |
| 2025-06-28 04:25 | 27.94649 | 84.66318 | 6773 ft | 157 kts | 111° |
| 2025-06-28 04:26 | 27.93856 | 84.68618 | 6802 ft | 158 kts | 112° |
| 2025-06-28 04:26 | 27.93451 | 84.69769 | 6804 ft | 158 kts | 112° |
| 2025-06-28 04:27 | 27.92228 | 84.73153 | 6804 ft | 158 kts | 112° |
| 2025-06-28 04:27 | 27.91393 | 84.75451 | 6805 ft | 159 kts | 112° |
| 2025-06-28 04:28 | 27.90574 | 84.77753 | 6804 ft | 159 kts | 112° |
| 2025-06-28 04:28 | 27.89744 | 84.80069 | 6802 ft | 158 kts | 112° |
| 2025-06-28 04:29 | 27.88925 | 84.82377 | 6839 ft | 159 kts | 112° |
| 2025-06-28 04:29 | 27.88101 | 84.84705 | 6839 ft | 159 kts | 112° |
| 2025-06-28 04:30 | 27.87279 | 84.87017 | 6834 ft | 158 kts | 112° |
| 2025-06-28 04:30 | 27.86861 | 84.88170 | 6835 ft | 159 kts | 112° |
| 2025-06-28 04:31 | 27.85607 | 84.91652 | 6801 ft | 159 kts | 112° |
| 2025-06-28 04:31 | 27.84789 | 84.93970 | 6801 ft | 159 kts | 112° |
| 2025-06-28 04:32 | 27.83958 | 84.96278 | 6799 ft | 158 kts | 112° |
| 2025-06-28 04:32 | 27.83126 | 84.98579 | 6824 ft | 158 kts | 112° |
| 2025-06-28 04:33 | 27.82301 | 85.00876 | 6829 ft | 159 kts | 112° |
| 2025-06-28 04:33 | 27.81618 | 85.02798 | 6830 ft | 159 kts | 112° |
| 2025-06-28 04:33 | 27.81204 | 85.03958 | 6831 ft | 159 kts | 112° |
| 2025-06-28 04:34 | 27.80384 | 85.06249 | 6833 ft | 157 kts | 113° |
| 2025-06-28 04:34 | 27.79153 | 85.09672 | 6833 ft | 156 kts | 113° |
| 2025-06-28 04:35 | 27.78326 | 85.11939 | 6842 ft | 157 kts | 114° |
| 2025-06-28 04:35 | 27.77491 | 85.14230 | 6859 ft | 159 kts | 112° |
| 2025-06-28 04:36 | 27.76670 | 85.16558 | 6856 ft | 160 kts | 113° |
| 2025-06-28 04:36 | 27.75827 | 85.18891 | 6852 ft | 160 kts | 112° |
| 2025-06-28 04:37 | 27.75410 | 85.20050 | 6847 ft | 159 kts | 113° |
| 2025-06-28 04:37 | 27.74578 | 85.22340 | 6843 ft | 157 kts | 113° |
| 2025-06-28 04:38 | 27.73744 | 85.24623 | 6849 ft | 158 kts | 113° |
| 2025-06-28 04:38 | 27.74279 | 85.28247 | 6488 ft | 172 kts | 63° |
| 2025-06-28 04:39 | 27.75074 | 85.30713 | 5931 ft | 153 kts | 79° |
| 2025-06-28 04:39 | 27.74747 | 85.32889 | 5810 ft | 142 kts | 110° |
| 2025-06-28 04:40 | 27.73572 | 85.34606 | 5673 ft | 148 kts | 147° |
| 2025-06-28 04:40 | 27.72327 | 85.36039 | 5207 ft | 116 kts | 131° |
| 2025-06-28 04:41 | 27.71768 | 85.36564 | 4990 ft | 99 kts | 158° |
| 2025-06-28 04:41 | 27.70020 | 85.36074 | 4369 ft | 57 kts | 202° |
| 2025-06-28 04:42 | 27.69757 | 85.35954 | 4358 ft | 32 kts | 200° |
| 2025-06-28 04:42 | 27.69419 | 85.35896 | 4356 ft | 35 kts | 201° |
| 2025-06-28 04:43 | 27.68845 | 85.35630 | 4340 ft | 46 kts | 202° |
| 2025-06-28 04:43 | 27.68431 | 85.35395 | 4330 ft | 0 kts | 283° |
| 2025-06-28 04:45 | 27.68465 | 85.35372 | 4330 ft | 26 kts | 10° |
| 2025-06-28 04:45 | 27.69185 | 85.35694 | 4355 ft | 72 kts | 21° |
| 2025-06-28 04:46 | 27.70216 | 85.36184 | 4494 ft | 96 kts | 20° |
| 2025-06-28 04:46 | 27.70896 | 85.38076 | 5043 ft | 107 kts | 114° |
| 2025-06-28 04:47 | 27.70181 | 85.39566 | 5455 ft | 108 kts | 115° |
| 2025-06-28 04:47 | 27.69681 | 85.41204 | 5828 ft | 112 kts | 111° |
| 2025-06-28 04:48 | 27.69318 | 85.41969 | 6056 ft | 109 kts | 120° |
| 2025-06-28 04:48 | 27.68485 | 85.43420 | 6439 ft | 110 kts | 122° |
| 2025-06-28 04:49 | 27.67678 | 85.44901 | 6790 ft | 110 kts | 124° |
| 2025-06-28 04:49 | 27.66426 | 85.45900 | 7068 ft | 117 kts | 158° |
| 2025-06-28 04:50 | 27.64960 | 85.46892 | 7178 ft | 130 kts | 128° |
| 2025-06-28 04:50 | 27.63706 | 85.50119 | 6874 ft | 161 kts | 115° |
| 2025-06-28 04:51 | 27.62747 | 85.52383 | 6861 ft | 160 kts | 117° |
| 2025-06-28 04:51 | 27.61715 | 85.54590 | 6851 ft | 158 kts | 120° |
| 2025-06-28 04:52 | 27.61186 | 85.55680 | 6849 ft | 158 kts | 119° |
| 2025-06-28 04:52 | 27.60193 | 85.57888 | 6854 ft | 158 kts | 116° |
| 2025-06-28 04:53 | 27.59290 | 85.60131 | 6853 ft | 157 kts | 115° |
| 2025-06-28 04:53 | 27.58360 | 85.62356 | 6851 ft | 157 kts | 117° |
| 2025-06-28 04:54 | 27.57386 | 85.64567 | 6851 ft | 157 kts | 117° |
| 2025-06-28 04:54 | 27.55953 | 85.67883 | 6849 ft | 158 kts | 117° |
| 2025-06-28 04:55 | 27.54508 | 85.71215 | 6843 ft | 158 kts | 116° |
| 2025-06-28 04:55 | 27.54028 | 85.72332 | 6842 ft | 158 kts | 117° |
| 2025-06-28 04:56 | 27.53072 | 85.74551 | 6856 ft | 157 kts | 116° |
| 2025-06-28 04:56 | 27.52122 | 85.76770 | 6818 ft | 158 kts | 116° |
| 2025-06-28 04:57 | 27.51164 | 85.78996 | 6821 ft | 158 kts | 116° |
| 2025-06-28 04:57 | 27.50114 | 85.81166 | 6816 ft | 159 kts | 133° |
| 2025-06-28 04:58 | 27.49414 | 85.82019 | 6815 ft | 158 kts | 133° |
| 2025-06-28 04:59 | 27.46794 | 85.85955 | 6817 ft | 159 kts | 120° |
| 2025-06-28 04:59 | 27.45795 | 85.88176 | 6836 ft | 159 kts | 115° |
| 2025-06-28 04:59 | 27.45181 | 85.89205 | 6835 ft | 159 kts | 133° |
| 2025-06-28 05:00 | 27.43528 | 85.90874 | 6713 ft | 165 kts | 141° |
| 2025-06-28 05:00 | 27.41752 | 85.92525 | 6443 ft | 169 kts | 140° |
| 2025-06-28 05:01 | 27.39872 | 85.94199 | 5773 ft | 172 kts | 135° |
| 2025-06-28 05:01 | 27.38081 | 85.95997 | 4984 ft | 172 kts | 143° |
| 2025-06-28 05:02 | 27.37069 | 85.98243 | 3749 ft | 189 kts | 75° |
| 2025-06-28 05:03 | 27.37718 | 86.02320 | 2755 ft | 160 kts | 86° |
| 2025-06-28 05:03 | 27.38003 | 86.04430 | 2419 ft | 116 kts | 82° |
| 2025-06-28 05:03 | 27.38372 | 86.05141 | 2068 ft | 102 kts | 62° |
| 2025-06-28 05:04 | 27.39322 | 86.05976 | 1706 ft | 66 kts | 38° |
| 2025-06-28 05:04 | 27.39485 | 86.06109 | 1706 ft | 0 kts | 31° |
| 2025-06-28 05:07 | 27.39522 | 86.06150 | 1712 ft | 20 kts | 30° |
| 2025-06-28 05:08 | 27.39057 | 86.05767 | 1741 ft | 76 kts | 208° |
| 2025-06-28 05:09 | 27.38097 | 86.04987 | 2088 ft | 88 kts | 194° |
| 2025-06-28 05:09 | 27.37439 | 86.05881 | 2555 ft | 93 kts | 84° |
| 2025-06-28 05:10 | 27.37896 | 86.07279 | 3020 ft | 97 kts | 84° |
| 2025-06-28 05:10 | 27.38010 | 86.08720 | 3536 ft | 92 kts | 85° |
| 2025-06-28 05:11 | 27.37942 | 86.10641 | 4207 ft | 90 kts | 104° |
| 2025-06-28 05:11 | 27.37871 | 86.11334 | 4462 ft | 88 kts | 94° |
| 2025-06-28 05:12 | 27.38027 | 86.12773 | 4865 ft | 99 kts | 78° |
| 2025-06-28 05:12 | 27.38298 | 86.14249 | 5331 ft | 96 kts | 80° |
| 2025-06-28 05:12 | 27.38398 | 86.14974 | 5546 ft | 95 kts | 82° |
| 2025-06-28 05:13 | 27.38424 | 86.17037 | 6302 ft | 90 kts | 102° |
| 2025-06-28 05:14 | 27.37877 | 86.18337 | 6682 ft | 99 kts | 126° |
| 2025-06-28 05:14 | 27.36950 | 86.19547 | 6896 ft | 116 kts | 134° |
| 2025-06-28 05:15 | 27.35602 | 86.20874 | 6911 ft | 139 kts | 143° |
| 2025-06-28 05:15 | 27.33909 | 86.22076 | 6962 ft | 148 kts | 153° |
| 2025-06-28 05:16 | 27.32021 | 86.22996 | 7003 ft | 151 kts | 161° |
| 2025-06-28 05:16 | 27.29979 | 86.23598 | 6987 ft | 153 kts | 165° |
| 2025-06-28 05:17 | 27.28289 | 86.25101 | 6892 ft | 159 kts | 137° |
| 2025-06-28 05:17 | 27.26688 | 86.26813 | 6836 ft | 158 kts | 137° |
| 2025-06-28 05:18 | 27.25098 | 86.28512 | 6833 ft | 157 kts | 137° |
| 2025-06-28 05:18 | 27.23513 | 86.30205 | 6832 ft | 156 kts | 137° |
| 2025-06-28 05:19 | 27.23064 | 86.33513 | 6836 ft | 157 kts | 76° |
| 2025-06-28 05:19 | 27.23349 | 86.34696 | 6853 ft | 158 kts | 76° |
| 2025-06-28 05:20 | 27.23926 | 86.37064 | 6844 ft | 160 kts | 76° |
| 2025-06-28 05:20 | 27.24504 | 86.39441 | 6848 ft | 158 kts | 74° |
| 2025-06-28 05:21 | 27.24790 | 86.41888 | 6852 ft | 159 kts | 89° |
| 2025-06-28 05:21 | 27.24834 | 86.44378 | 6848 ft | 159 kts | 90° |
| 2025-06-28 05:21 | 27.24876 | 86.46459 | 6847 ft | 159 kts | 90° |
| 2025-06-28 05:22 | 27.24895 | 86.47686 | 6849 ft | 158 kts | 90° |
| 2025-06-28 05:22 | 27.25708 | 86.51218 | 6867 ft | 158 kts | 65° |
| 2025-06-28 05:23 | 27.26686 | 86.53445 | 6866 ft | 159 kts | 65° |
| 2025-06-28 05:23 | 27.27661 | 86.55678 | 6865 ft | 159 kts | 65° |
| 2025-06-28 05:24 | 27.29140 | 86.57544 | 6866 ft | 161 kts | 45° |
| 2025-06-28 05:24 | 27.30853 | 86.59174 | 6864 ft | 161 kts | 40° |
| 2025-06-28 05:25 | 27.31728 | 86.59964 | 6917 ft | 161 kts | 39° |
| 2025-06-28 05:25 | 27.33484 | 86.61546 | 6921 ft | 162 kts | 40° |
| 2025-06-28 05:26 | 27.35488 | 86.62391 | 6912 ft | 159 kts | 7° |
| 2025-06-28 05:26 | 27.38825 | 86.62411 | 6920 ft | 161 kts | 355° |
| 2025-06-28 05:27 | 27.41011 | 86.62732 | 6906 ft | 164 kts | 39° |
| 2025-06-28 05:27 | 27.41413 | 86.65022 | 6944 ft | 159 kts | 115° |
| 2025-06-28 05:28 | 27.39654 | 86.65877 | 7142 ft | 145 kts | 192° |
| 2025-06-28 05:28 | 27.38661 | 86.65595 | 7146 ft | 149 kts | 194° |
| 2025-06-28 05:29 | 27.35726 | 86.64414 | 7146 ft | 153 kts | 225° |
| 2025-06-28 05:29 | 27.35299 | 86.63340 | 7126 ft | 155 kts | 264° |
| 2025-06-28 05:30 | 27.36182 | 86.61314 | 7371 ft | 112 kts | 310° |
| 2025-06-28 05:30 | 27.38251 | 86.60377 | 7529 ft | 115 kts | 5° |
| 2025-06-28 05:31 | 27.39559 | 86.60906 | 7349 ft | 93 kts | 41° |
| 2025-06-28 05:31 | 27.40474 | 86.61865 | 7231 ft | 91 kts | 52° |
| 2025-06-28 05:32 | 27.41107 | 86.63137 | 7036 ft | 93 kts | 75° |
| 2025-06-28 05:32 | 27.41137 | 86.64430 | 6826 ft | 76 kts | 115° |
| 2025-06-28 05:33 | 27.40983 | 86.64822 | 6818 ft | 24 kts | 114° |
| 2025-06-28 05:33 | 27.41025 | 86.64739 | 6822 ft | 14 kts | 290° |
| 2025-06-28 05:34 | 27.41079 | 86.64599 | 6822 ft | 19 kts | 289° |
| 2025-06-28 05:34 | 27.41149 | 86.64403 | 6804 ft | 0 kts | 30° |
| 2025-06-28 05:35 | 27.41096 | 86.64551 | 6820 ft | 34 kts | 114° |
| 2025-06-28 05:35 | 27.41081 | 86.64676 | 6822 ft | 0 kts | 25° |
| 2025-06-28 05:38 | 27.41084 | 86.64678 | 6822 ft | 0 kts | 25° |
| 2025-06-28 05:38 | 27.41075 | 86.64673 | 6822 ft | 0 kts | 26° |
| 2025-06-28 05:41 | 27.41076 | 86.64674 | 6822 ft | 0 kts | 27° |
| 2025-06-28 05:47 | 27.40981 | 86.64831 | 6824 ft | 28 kts | 117° |
| 2025-06-28 05:47 | 27.40966 | 86.64886 | 6820 ft | 0 kts | 296° |
| 2025-06-28 05:50 | 27.40978 | 86.64857 | 6823 ft | 0 kts | 294° |
| 2025-06-28 05:50 | 27.41227 | 86.64227 | 6802 ft | 87 kts | 297° |
| 2025-06-28 05:51 | 27.42198 | 86.63648 | 7316 ft | 77 kts | 343° |
| 2025-06-28 05:51 | 27.43229 | 86.63392 | 7675 ft | 80 kts | 337° |
| 2025-06-28 05:52 | 27.43728 | 86.63114 | 7836 ft | 87 kts | 316° |
| 2025-06-28 05:52 | 27.44448 | 86.61963 | 8157 ft | 103 kts | 288° |
| 2025-06-28 05:53 | 27.45571 | 86.59736 | 8655 ft | 114 kts | 324° |
| 2025-06-28 05:53 | 27.46314 | 86.59385 | 8828 ft | 118 kts | 343° |
| 2025-06-28 05:54 | 27.47940 | 86.59214 | 9054 ft | 122 kts | 0° |
| 2025-06-28 05:54 | 27.50600 | 86.58948 | 9107 ft | 148 kts | 353° |
| 2025-06-28 05:55 | 27.52376 | 86.58355 | 9494 ft | 130 kts | 339° |
| 2025-06-28 05:55 | 27.54095 | 86.57772 | 9672 ft | 119 kts | 11° |
| 2025-06-28 05:56 | 27.54548 | 86.58415 | 9637 ft | 105 kts | 94° |
| 2025-06-28 05:56 | 27.53551 | 86.59445 | 8911 ft | 107 kts | 178° |
| 2025-06-28 05:57 | 27.52405 | 86.58803 | 8109 ft | 96 kts | 208° |
| 2025-06-28 05:57 | 27.51511 | 86.58373 | 7988 ft | 10 kts | 174° |
| 2025-06-28 05:58 | 27.51647 | 86.58481 | 7975 ft | 10 kts | 26° |
| 2025-06-28 05:59 | 27.51645 | 86.58479 | 7976 ft | 0 kts | 204° |
| 2025-06-28 06:02 | 27.51644 | 86.58478 | 7974 ft | 0 kts | 197° |
| 2025-06-28 06:05 | 27.51614 | 86.58429 | 7979 ft | 21 kts | 210° |
| 2025-06-28 06:05 | 27.51536 | 86.58391 | 7987 ft | 0 kts | 22° |
| 2025-06-28 06:07 | 27.51530 | 86.58381 | 7990 ft | 0 kts | 91° |
| 2025-06-28 06:08 | 27.51541 | 86.58391 | 7986 ft | 0 kts | 22° |
| 2025-06-28 06:09 | 27.51627 | 86.58430 | 7979 ft | 43 kts | 22° |
| 2025-06-28 06:10 | 27.52556 | 86.58531 | 8130 ft | 82 kts | 304° |
| 2025-06-28 06:11 | 27.51265 | 86.57793 | 8488 ft | 95 kts | 182° |
| 2025-06-28 06:11 | 27.49824 | 86.57811 | 8656 ft | 113 kts | 168° |
| 2025-06-28 06:11 | 27.49095 | 86.58058 | 8762 ft | 109 kts | 161° |
| 2025-06-28 06:12 | 27.47724 | 86.58675 | 8893 ft | 111 kts | 155° |
| 2025-06-28 06:12 | 27.46449 | 86.59579 | 9153 ft | 110 kts | 142° |
| 2025-06-28 06:13 | 27.46003 | 86.61212 | 9393 ft | 117 kts | 81° |
| 2025-06-28 06:13 | 27.46470 | 86.62966 | 9783 ft | 118 kts | 64° |
| 2025-06-28 06:14 | 27.47604 | 86.64255 | 9964 ft | 132 kts | 41° |
| 2025-06-28 06:15 | 27.49778 | 86.66466 | 10002 ft | 149 kts | 32° |
| 2025-06-28 06:15 | 27.51666 | 86.67568 | 10005 ft | 155 kts | 17° |
| 2025-06-28 06:15 | 27.52745 | 86.67869 | 9966 ft | 162 kts | 14° |
| 2025-06-28 06:16 | 27.54893 | 86.68438 | 9982 ft | 158 kts | 13° |
| 2025-06-28 06:16 | 27.56988 | 86.68967 | 10051 ft | 156 kts | 14° |
| 2025-06-28 06:17 | 27.59120 | 86.69503 | 10050 ft | 157 kts | 14° |
| 2025-06-28 06:17 | 27.61209 | 86.70037 | 10051 ft | 159 kts | 14° |
| 2025-06-28 06:18 | 27.63423 | 86.70226 | 10051 ft | 159 kts | 1° |
| 2025-06-28 06:19 | 27.66730 | 86.70334 | 9804 ft | 156 kts | 2° |
| 2025-06-28 06:19 | 27.68331 | 86.71167 | 9445 ft | 99 kts | 87° |
| 2025-06-28 06:19 | 27.68344 | 86.71890 | 9308 ft | 87 kts | 89° |
| 2025-06-28 06:20 | 27.68728 | 86.73045 | 9310 ft | 52 kts | 66° |
| 2025-06-28 06:20 | 27.68741 | 86.73143 | 9358 ft | 0 kts | 233° |
| 2025-06-28 06:23 | 27.68744 | 86.73150 | 9358 ft | 0 kts | 202° |